Jefferson, Ohio
Current Conditions -  °F | °C
As of 8:53 AM on Sunday 21 Dec 2014 (Local Time) from KHZY Reporting Station
Overcast Overcast  
Wind Chill: 30°   Ceiling: 2500
Heat Index: 30°   Visibility: 8mi
Dew Point: 25°   Wind: 3mph
Humidity: 82%   Direction: 170°S
Pressure: 30.32"   Gusts: NA
Location:  41.74°N, 80.77°W
Report Text: KHZY 211353Z AUTO 17003KT 8SM OVC025 M01/M04 A3032 RMK AO2 SLP277 T10111039
Loading
Personal Weather Stations






























Interactive Weather Map New forecast layout! Learn more

10-Day Weather Forecast

Advertisements
Track Severe Weather on mobile